Time;durP1;ratioP1;P1;durP2;ratioP2;P2;SDS_P1;SDS_P2;PMS_P1;PMS_P2;Temp;Humidity;BMP_temperature;BMP_pressure;BME280_temperature;BME280_humidity;BME280_pressure;Samples;Min_cycle;Max_cycle;Signal;HPM_P1;HPM_P2
2021/08/03 00:00:04;;;;;;;2.42;0.80;;;;;;;14.80;71.49;100683.78;5960527;30;20194;-75
2021/08/03 00:03:28;;;;;;;0.88;0.88;;;;;;;14.76;71.87;100693.63;5961129;30;20233;-75
2021/08/03 00:06:36;;;;;;;0.98;0.90;;;;;;;14.71;72.12;100690.78;5959850;30;20245;-75
2021/08/03 00:09:41;;;;;;;2.50;1.00;;;;;;;14.65;73.01;100691.75;5961177;30;20194;-75
2021/08/03 00:12:51;;;;;;;1.08;1.08;;;;;;;14.73;73.71;100694.09;5960012;29;20541;-75
2021/08/03 00:16:01;;;;;;;0.93;0.93;;;;;;;14.73;73.95;100691.38;5959765;30;20291;-75
2021/08/03 00:19:06;;;;;;;2.40;1.08;;;;;;;14.72;73.77;100686.94;5960765;30;20194;-75
2021/08/03 00:22:10;;;;;;;1.50;1.30;;;;;;;14.74;73.65;100687.50;5959545;30;20246;-75
2021/08/03 00:25:16;;;;;;;1.23;1.23;;;;;;;14.70;73.83;100697.34;5960657;29;20194;-75
2021/08/03 00:28:23;;;;;;;0.95;0.95;;;;;;;14.62;73.60;100684.00;5961021;30;20193;-75
2021/08/03 00:31:27;;;;;;;1.10;1.10;;;;;;;14.65;73.73;100686.28;5959507;29;20532;-75
2021/08/03 00:34:32;;;;;;;1.00;1.00;;;;;;;14.60;73.84;100677.94;5959460;30;20550;-75
2021/08/03 00:37:37;;;;;;;1.10;1.00;;;;;;;14.56;74.28;100685.00;5958569;30;20209;-75
2021/08/03 00:40:48;;;;;;;1.02;1.02;;;;;;;14.68;74.72;100687.69;5959282;30;20505;-76
2021/08/03 00:43:54;;;;;;;0.98;0.98;;;;;;;14.58;75.08;100685.59;5958536;30;20348;-75
2021/08/03 00:46:58;;;;;;;0.98;0.98;;;;;;;14.61;73.65;100690.56;5959794;30;20222;-75
2021/08/03 00:50:06;;;;;;;1.95;1.00;;;;;;;14.44;74.29;100692.47;5959130;30;20193;-75
2021/08/03 00:53:13;;;;;;;1.00;1.00;;;;;;;14.55;74.17;100691.56;5959175;30;20214;-75
2021/08/03 00:56:18;;;;;;;1.17;1.17;;;;;;;14.57;74.53;100694.91;5958525;30;20217;-75
2021/08/03 00:59:25;;;;;;;1.10;1.10;;;;;;;14.49;74.06;100692.56;5958374;29;20383;-75
2021/08/03 01:02:29;;;;;;;1.10;1.10;;;;;;;14.56;74.12;100698.72;5960018;29;20277;-75
2021/08/03 01:05:54;;;;;;;1.05;1.05;;;;;;;14.56;74.71;100704.22;5957852;29;20237;-75
2021/08/03 01:09:05;;;;;;;1.00;1.00;;;;;;;14.48;73.53;100701.88;5960022;29;20257;-75
2021/08/03 01:12:22;;;;;;;1.10;1.10;;;;;;;14.64;73.44;100697.47;5959958;30;20224;-75
2021/08/03 01:15:40;;;;;;;1.10;1.10;;;;;;;14.54;73.20;100700.88;5958581;30;20413;-75
2021/08/03 01:18:53;;;;;;;1.00;1.00;;;;;;;14.63;73.38;100696.69;5958542;30;20481;-75
2021/08/03 01:22:05;;;;;;;0.90;0.90;;;;;;;14.69;73.47;100687.44;5958412;30;20255;-75
2021/08/03 01:25:25;;;;;;;1.95;1.40;;;;;;;14.49;72.91;100697.19;5959188;30;20233;-76
2021/08/03 01:28:34;;;;;;;1.30;1.00;;;;;;;14.56;72.62;100709.69;5958396;29;20241;-75
2021/08/03 01:31:44;;;;;;;1.27;1.13;;;;;;;14.55;72.67;100699.81;5957694;29;20272;-75
2021/08/03 01:34:52;;;;;;;1.35;1.10;;;;;;;14.44;72.66;100703.44;5959319;30;20208;-75
2021/08/03 01:37:59;;;;;;;1.20;1.20;;;;;;;14.61;72.65;100707.03;5958428;29;20209;-75
2021/08/03 01:41:07;;;;;;;1.02;1.02;;;;;;;14.54;72.22;100720.09;5958026;30;20248;-75
2021/08/03 01:44:15;;;;;;;1.17;1.17;;;;;;;14.52;73.40;100719.50;5958509;29;20351;-75
2021/08/03 01:47:25;;;;;;;1.10;0.90;;;;;;;14.51;72.97;100711.53;5957102;30;20221;-75
2021/08/03 01:50:31;;;;;;;0.90;0.90;;;;;;;14.53;72.42;100715.72;5957950;29;20245;-75
2021/08/03 01:53:40;;;;;;;0.90;0.90;;;;;;;14.64;72.10;100711.22;5956783;29;20259;-75
2021/08/03 01:56:47;;;;;;;1.50;1.00;;;;;;;14.58;71.99;100712.22;5957779;30;20194;-75
2021/08/03 01:59:58;;;;;;;0.93;0.93;;;;;;;14.51;72.41;100709.59;5956914;30;20241;-75
2021/08/03 02:03:06;;;;;;;1.13;1.13;;;;;;;14.55;72.52;100718.19;5957009;29;20210;-75
2021/08/03 02:06:15;;;;;;;2.28;1.13;;;;;;;14.63;72.81;100718.63;5957573;30;20245;-75
2021/08/03 02:09:24;;;;;;;1.00;1.00;;;;;;;14.61;71.84;100718.03;5956611;30;20209;-75
2021/08/03 02:12:34;;;;;;;0.80;0.80;;;;;;;14.55;72.36;100712.69;5956686;30;20239;-75
2021/08/03 02:15:42;;;;;;;0.90;0.90;;;;;;;14.54;72.02;100717.34;5956648;29;20263;-75
2021/08/03 02:18:47;;;;;;;2.40;0.80;;;;;;;14.57;71.86;100722.34;5956687;29;20247;-75
2021/08/03 02:21:58;;;;;;;0.77;0.77;;;;;;;14.44;71.78;100722.66;5957416;29;20288;-75
2021/08/03 02:25:04;;;;;;;0.98;0.98;;;;;;;14.32;71.95;100725.47;5956648;29;20391;-75
2021/08/03 02:28:10;;;;;;;0.90;0.90;;;;;;;14.35;72.14;100724.13;5957093;30;20423;-75
2021/08/03 02:31:21;;;;;;;0.70;0.70;;;;;;;14.45;71.86;100740.81;5957974;30;20200;-75
2021/08/03 02:34:31;;;;;;;0.80;0.80;;;;;;;14.30;71.89;100732.22;5957100;29;20205;-75
2021/08/03 02:37:37;;;;;;;0.80;0.80;;;;;;;14.37;71.75;100732.94;5956631;30;20290;-75
2021/08/03 02:40:46;;;;;;;0.80;0.80;;;;;;;14.50;71.54;100732.66;5958176;30;20198;-75
2021/08/03 02:43:59;;;;;;;0.77;0.77;;;;;;;14.33;72.47;100735.34;5957717;30;20290;-75
2021/08/03 02:47:17;;;;;;;0.98;0.98;;;;;;;14.44;71.92;100739.13;5958101;30;20260;-75
2021/08/03 02:50:24;;;;;;;1.05;1.05;;;;;;;14.30;71.40;100748.69;5958083;30;20256;-75
2021/08/03 02:53:33;;;;;;;0.80;0.80;;;;;;;14.33;72.20;100742.72;5956655;30;20366;-75
2021/08/03 02:56:41;;;;;;;0.70;0.70;;;;;;;14.35;71.33;100746.09;5957901;30;20194;-75
2021/08/03 02:59:50;;;;;;;2.00;0.98;;;;;;;14.40;71.63;100758.00;5956856;29;20225;-76
2021/08/03 03:02:57;;;;;;;0.80;0.80;;;;;;;14.42;72.02;100755.00;5958086;30;20210;-75
2021/08/03 03:06:05;;;;;;;1.30;0.90;;;;;;;14.48;72.01;100756.78;5955952;29;20378;-75
2021/08/03 03:09:14;;;;;;;0.85;0.85;;;;;;;14.49;72.11;100758.44;5955766;29;20216;-75
2021/08/03 03:12:19;;;;;;;0.80;0.80;;;;;;;14.55;72.45;100762.97;5957509;30;20194;-75
2021/08/03 03:15:23;;;;;;;0.98;0.90;;;;;;;14.52;72.29;100763.44;5956801;29;20213;-75
2021/08/03 03:18:30;;;;;;;1.17;1.05;;;;;;;14.45;72.58;100773.75;5957664;30;20200;-75
2021/08/03 03:21:42;;;;;;;0.82;0.77;;;;;;;14.33;70.96;100771.00;5956762;29;20209;-75
2021/08/03 03:24:48;;;;;;;0.90;0.90;;;;;;;14.33;71.51;100781.16;5957626;30;20225;-75
2021/08/03 03:27:58;;;;;;;0.90;0.90;;;;;;;14.36;72.29;100786.16;5957567;29;20508;-75
2021/08/03 03:31:08;;;;;;;0.80;0.80;;;;;;;14.31;72.86;100789.66;5960221;30;20194;-75
2021/08/03 03:34:18;;;;;;;0.85;0.85;;;;;;;14.35;71.68;100787.25;5960745;30;20225;-75
2021/08/03 03:37:27;;;;;;;0.80;0.80;;;;;;;14.36;71.49;100786.16;5960332;29;20209;-75
2021/08/03 03:40:34;;;;;;;1.00;1.00;;;;;;;14.17;70.15;100787.38;5959879;29;20231;-75
2021/08/03 03:43:39;;;;;;;1.20;1.10;;;;;;;14.24;71.28;100799.06;5960134;29;20209;-75
2021/08/03 03:46:49;;;;;;;1.08;1.08;;;;;;;14.33;69.53;100794.88;5961692;30;20221;-75
2021/08/03 03:50:00;;;;;;;0.90;0.90;;;;;;;14.26;70.07;100805.13;5961364;30;20194;-75
2021/08/03 03:53:09;;;;;;;0.80;0.80;;;;;;;14.28;70.77;100806.56;5960661;29;20250;-75
2021/08/03 03:56:17;;;;;;;3.28;1.10;;;;;;;14.28;69.64;100811.19;5961295;30;20205;-74
2021/08/03 03:59:23;;;;;;;2.35;0.80;;;;;;;14.32;70.11;100804.19;5961401;30;20201;-75
2021/08/03 04:02:31;;;;;;;1.45;0.90;;;;;;;14.33;69.63;100808.59;5959729;29;20213;-75
2021/08/03 04:05:42;;;;;;;2.25;1.00;;;;;;;14.36;69.66;100825.44;5958926;30;20294;-75
2021/08/03 04:08:47;;;;;;;1.00;1.00;;;;;;;14.25;69.18;100808.97;5959777;29;20522;-75
2021/08/03 04:11:54;;;;;;;0.82;0.82;;;;;;;14.39;69.53;100818.63;5961263;30;20216;-75
2021/08/03 04:15:01;;;;;;;4.97;0.95;;;;;;;14.21;69.03;100816.00;5960919;29;20198;-75
2021/08/03 04:18:07;;;;;;;1.60;0.90;;;;;;;14.20;69.77;100820.66;5959408;29;20209;-75
2021/08/03 04:21:16;;;;;;;0.77;0.77;;;;;;;14.23;69.21;100824.81;5959302;29;20246;-75
2021/08/03 04:24:20;;;;;;;2.55;0.60;;;;;;;14.33;69.17;100816.84;5959696;30;20423;-75
2021/08/03 04:27:24;;;;;;;0.90;0.90;;;;;;;14.27;69.24;100834.25;5960507;30;20221;-75
2021/08/03 04:30:28;;;;;;;0.88;0.88;;;;;;;14.27;70.07;100831.50;5960018;30;20236;-75
2021/08/03 04:33:33;;;;;;;2.78;0.98;;;;;;;14.36;70.45;100830.06;5960694;30;20198;-76
2021/08/03 04:36:38;;;;;;;0.90;0.90;;;;;;;14.36;70.03;100835.56;5959585;30;20259;-75
2021/08/03 04:39:42;;;;;;;0.80;0.80;;;;;;;14.31;69.35;100840.94;5959187;29;20240;-75
2021/08/03 04:42:46;;;;;;;0.80;0.80;;;;;;;14.42;68.85;100829.13;5960300;30;20200;-75
2021/08/03 04:45:50;;;;;;;0.80;0.80;;;;;;;14.49;69.09;100840.78;5960155;29;20227;-75
2021/08/03 04:48:55;;;;;;;0.80;0.80;;;;;;;14.42;69.41;100834.59;5959114;30;20200;-75
2021/08/03 04:52:01;;;;;;;0.70;0.70;;;;;;;14.43;68.93;100848.06;5959509;30;20235;-75
2021/08/03 04:55:06;;;;;;;0.80;0.80;;;;;;;14.43;68.06;100850.00;5959093;30;20194;-75
2021/08/03 04:58:10;;;;;;;0.95;0.88;;;;;;;14.58;67.94;100842.09;5959371;30;20261;-75
2021/08/03 05:01:14;;;;;;;0.80;0.80;;;;;;;14.59;68.04;100857.47;5959273;30;20201;-75
2021/08/03 05:04:19;;;;;;;1.20;0.95;;;;;;;14.73;67.79;100847.91;5959899;30;20237;-75
2021/08/03 05:07:25;;;;;;;2.05;0.90;;;;;;;14.77;68.01;100854.56;5958653;30;20441;-75
2021/08/03 05:10:30;;;;;;;1.10;1.10;;;;;;;14.76;69.25;100850.16;5958731;30;20477;-75
2021/08/03 05:13:36;;;;;;;0.80;0.80;;;;;;;14.44;67.12;100854.41;5959821;30;20194;-75
2021/08/03 05:16:40;;;;;;;0.93;0.93;;;;;;;14.39;67.21;100857.03;5959252;29;20543;-75
2021/08/03 05:19:45;;;;;;;0.75;0.75;;;;;;;14.70;67.20;100859.38;5958652;30;20216;-76
2021/08/03 05:22:50;;;;;;;0.98;0.90;;;;;;;14.78;68.50;100856.25;5958753;30;20230;-75
2021/08/03 05:25:55;;;;;;;0.80;0.80;;;;;;;14.73;67.07;100858.88;5957873;30;20586;-75
2021/08/03 05:28:59;;;;;;;1.02;1.00;;;;;;;14.70;67.27;100870.34;5959548;30;20225;-76
2021/08/03 05:32:06;;;;;;;0.82;0.82;;;;;;;14.89;67.21;100860.03;5959167;30;20268;-75
2021/08/03 05:35:11;;;;;;;0.85;0.85;;;;;;;15.01;66.83;100872.63;5958315;30;20481;-75
2021/08/03 05:38:17;;;;;;;0.80;0.80;;;;;;;15.07;67.37;100866.13;5959481;30;20198;-75
2021/08/03 05:41:21;;;;;;;0.70;0.70;;;;;;;15.03;67.05;100875.13;5958019;30;20194;-75
2021/08/03 05:44:25;;;;;;;1.10;1.10;;;;;;;14.93;65.62;100875.75;5959049;30;20193;-74
2021/08/03 05:47:30;;;;;;;0.70;0.70;;;;;;;15.16;66.44;100871.25;5958478;30;20221;-75
2021/08/03 05:50:34;;;;;;;0.70;0.70;;;;;;;15.09;65.33;100868.66;5957546;29;20444;-75
2021/08/03 05:53:41;;;;;;;0.80;0.80;;;;;;;15.23;65.38;100869.19;5958530;30;20193;-75
2021/08/03 05:56:49;;;;;;;0.60;0.60;;;;;;;15.26;65.30;100874.19;5957650;30;20202;-75
2021/08/03 05:59:53;;;;;;;1.65;0.90;;;;;;;15.38;65.93;100885.97;5957668;29;20487;-75
2021/08/03 06:02:57;;;;;;;1.20;0.88;;;;;;;15.54;66.00;100882.41;5957900;30;20386;-75
2021/08/03 06:06:02;;;;;;;0.98;0.98;;;;;;;15.56;64.45;100885.78;5958354;29;20308;-75
2021/08/03 06:09:11;;;;;;;0.93;0.93;;;;;;;15.60;64.03;100886.94;5957462;30;20508;-75
2021/08/03 06:12:15;;;;;;;0.80;0.80;;;;;;;15.75;65.27;100889.94;5957337;30;20437;-74
2021/08/03 06:15:20;;;;;;;4.28;1.23;;;;;;;15.92;65.88;100889.97;5958109;30;20209;-75
2021/08/03 06:18:30;;;;;;;0.90;0.90;;;;;;;16.06;63.15;100886.59;5957246;30;20615;-76
2021/08/03 06:21:35;;;;;;;0.73;0.73;;;;;;;16.24;63.06;100888.25;5958264;30;20194;-76
2021/08/03 06:24:42;;;;;;;0.90;0.90;;;;;;;16.23;63.47;100889.31;5958311;30;20266;-75
2021/08/03 06:27:49;;;;;;;1.08;1.08;;;;;;;16.40;64.05;100900.31;5958300;29;20249;-75
2021/08/03 06:30:53;;;;;;;1.25;0.73;;;;;;;16.51;63.02;100896.63;5957855;30;20197;-75
2021/08/03 06:33:59;;;;;;;0.90;0.90;;;;;;;16.49;61.99;100893.25;5958159;30;20200;-76
2021/08/03 06:37:07;;;;;;;0.90;0.90;;;;;;;16.65;61.42;100895.19;5957681;30;20205;-76
2021/08/03 06:40:13;;;;;;;0.90;0.90;;;;;;;16.85;61.18;100900.94;5956831;30;20194;-76
2021/08/03 06:43:19;;;;;;;2.08;0.93;;;;;;;16.95;61.09;100906.56;5958141;30;20275;-76
2021/08/03 06:46:24;;;;;;;0.90;0.90;;;;;;;17.11;61.10;100905.69;5957680;30;20249;-76
2021/08/03 06:49:32;;;;;;;0.90;0.90;;;;;;;17.15;60.47;100912.34;5957021;30;20502;-76
2021/08/03 06:52:37;;;;;;;0.75;0.63;;;;;;;17.13;60.67;100909.00;5958025;30;20263;-76
2021/08/03 06:55:48;;;;;;;1.27;0.82;;;;;;;17.29;61.02;100908.09;5956850;30;20494;-76
2021/08/03 06:58:58;;;;;;;0.75;0.75;;;;;;;17.28;59.47;100906.41;5958047;30;20205;-76
2021/08/03 07:02:06;;;;;;;0.70;0.70;;;;;;;17.44;58.56;100911.00;5960284;29;20217;-76
2021/08/03 07:05:16;;;;;;;0.63;0.63;;;;;;;17.46;58.66;100917.09;5964897;30;20245;-76
2021/08/03 07:08:20;;;;;;;1.40;0.85;;;;;;;17.48;58.65;100917.69;5963998;30;20566;-76
2021/08/03 07:11:29;;;;;;;1.45;0.88;;;;;;;17.68;58.29;100919.00;5964048;29;20455;-75
2021/08/03 07:14:34;;;;;;;0.85;0.85;;;;;;;17.74;58.61;100926.22;5964913;30;20197;-75
2021/08/03 07:17:40;;;;;;;0.80;0.80;;;;;;;17.93;56.73;100924.72;5963815;30;20372;-76
2021/08/03 07:20:45;;;;;;;1.30;0.65;;;;;;;17.81;56.31;100915.78;5963812;30;20449;-76
2021/08/03 07:23:52;;;;;;;0.80;0.80;;;;;;;17.84;55.91;100920.78;5963770;29;20459;-76
2021/08/03 07:27:01;;;;;;;1.67;0.80;;;;;;;17.96;55.82;100929.72;5963707;30;20228;-75
2021/08/03 07:30:08;;;;;;;1.10;1.00;;;;;;;18.17;54.79;100925.19;5963694;29;20391;-75
2021/08/03 07:33:17;;;;;;;0.90;0.90;;;;;;;18.20;54.73;100936.56;5964927;30;20194;-75
2021/08/03 07:36:21;;;;;;;0.90;0.90;;;;;;;18.11;53.96;100935.38;5964590;30;20201;-76
2021/08/03 07:39:25;;;;;;;0.70;0.70;;;;;;;18.10;54.02;100930.97;5963696;30;20488;-76
2021/08/03 07:42:33;;;;;;;0.90;0.90;;;;;;;18.22;54.26;100934.34;5964802;30;20261;-75
2021/08/03 07:45:38;;;;;;;0.80;0.80;;;;;;;18.22;52.52;100939.88;5963459;30;20225;-75
2021/08/03 07:48:49;;;;;;;0.80;0.80;;;;;;;18.23;51.83;100941.56;5963292;29;20339;-76
2021/08/03 07:51:54;;;;;;;0.82;0.82;;;;;;;18.35;53.66;100950.47;5964618;30;20225;-75
2021/08/03 07:54:58;;;;;;;0.80;0.80;;;;;;;18.34;51.33;100942.44;5964077;30;20193;-76
2021/08/03 07:58:03;;;;;;;4.78;0.80;;;;;;;18.32;52.44;100939.94;5964421;30;20197;-76
2021/08/03 08:01:09;;;;;;;0.70;0.70;;;;;;;18.44;52.14;100943.34;5963346;30;20212;-76
2021/08/03 08:04:17;;;;;;;0.90;0.90;;;;;;;18.52;52.94;100942.03;5963935;30;20252;-76
2021/08/03 08:07:26;;;;;;;0.80;0.80;;;;;;;18.61;51.15;100943.22;5963053;30;20473;-77
2021/08/03 08:10:30;;;;;;;2.83;0.75;;;;;;;18.63;51.69;100936.31;5964012;30;20193;-76
2021/08/03 08:13:35;;;;;;;0.70;0.70;;;;;;;18.23;48.52;100952.59;5963151;29;20201;-76
2021/08/03 08:16:39;;;;;;;0.85;0.85;;;;;;;18.42;50.14;100944.69;5960787;29;20201;-76
2021/08/03 08:19:44;;;;;;;0.70;0.70;;;;;;;18.47;51.37;100948.38;5959824;29;20274;-75
2021/08/03 08:22:48;;;;;;;0.80;0.80;;;;;;;18.46;50.40;100945.84;5960631;30;20193;-76
2021/08/03 08:25:53;;;;;;;1.15;0.65;;;;;;;18.51;47.88;100938.47;5959582;30;20243;-76
2021/08/03 08:28:58;;;;;;;0.68;0.68;;;;;;;18.40;47.17;100944.16;5959311;30;20220;-76
2021/08/03 08:32:03;;;;;;;0.60;0.60;;;;;;;18.50;46.87;100942.31;5959185;30;20289;-76
2021/08/03 08:35:10;;;;;;;0.60;0.60;;;;;;;18.51;45.36;100944.00;5959218;30;20489;-76
2021/08/03 08:38:20;;;;;;;0.60;0.60;;;;;;;18.57;44.56;100948.44;5959225;30;20593;-76
2021/08/03 08:41:26;;;;;;;2.15;0.80;;;;;;;18.65;44.36;100936.88;5960390;30;20201;-76
2021/08/03 08:44:32;;;;;;;0.60;0.60;;;;;;;18.66;43.93;100941.31;5959563;29;20445;-75
2021/08/03 08:47:38;;;;;;;0.70;0.70;;;;;;;18.73;44.79;100955.72;5960338;30;20294;-75
2021/08/03 08:50:43;;;;;;;0.90;0.90;;;;;;;18.44;45.88;100943.34;5960270;29;20200;-75
2021/08/03 08:53:47;;;;;;;0.80;0.80;;;;;;;18.56;44.57;100957.00;5959882;30;20275;-75
2021/08/03 08:56:51;;;;;;;0.70;0.70;;;;;;;18.65;44.35;100956.22;5958638;30;20201;-75
2021/08/03 08:59:59;;;;;;;5.85;0.70;;;;;;;18.62;44.43;100951.22;5959665;30;20205;-76
2021/08/03 09:03:04;;;;;;;0.60;0.60;;;;;;;18.46;43.32;100957.72;5959171;29;20210;-75
2021/08/03 09:06:11;;;;;;;0.77;0.70;;;;;;;18.47;43.90;100953.06;5959184;29;20314;-75
2021/08/03 09:09:19;;;;;;;0.70;0.70;;;;;;;18.54;44.29;100960.00;5959473;29;20221;-75
2021/08/03 09:12:40;;;;;;;0.77;0.77;;;;;;;18.55;44.26;100960.84;5958549;30;20194;-75
2021/08/03 09:15:55;;;;;;;0.60;0.60;;;;;;;18.65;44.89;100961.75;5958374;30;20570;-75
2021/08/03 09:18:59;;;;;;;0.60;0.60;;;;;;;18.72;42.97;100951.28;5958412;29;20399;-76
2021/08/03 09:22:16;;;;;;;0.63;0.63;;;;;;;18.88;43.41;100956.88;5959316;30;20194;-75
2021/08/03 09:25:20;;;;;;;0.70;0.70;;;;;;;18.98;44.05;100959.69;5957849;29;20478;-75
2021/08/03 09:28:25;;;;;;;0.80;0.80;;;;;;;19.04;43.54;100969.69;5959342;30;20240;-76
2021/08/03 09:31:35;;;;;;;0.75;0.75;;;;;;;19.14;44.11;100961.44;5959170;30;20225;-76
2021/08/03 09:34:39;;;;;;;0.70;0.70;;;;;;;19.04;43.74;100975.22;5959870;30;20201;-76
2021/08/03 09:37:45;;;;;;;1.58;0.80;;;;;;;18.95;43.25;100965.78;5959481;30;20235;-75
2021/08/03 09:40:52;;;;;;;1.00;1.00;;;;;;;19.10;43.53;100982.44;5959366;30;20198;-75
2021/08/03 09:43:57;;;;;;;0.60;0.60;;;;;;;18.89;40.09;100977.91;5959261;30;20308;-75
2021/08/03 09:47:03;;;;;;;0.60;0.60;;;;;;;18.93;42.07;100979.03;5959340;29;20200;-75
2021/08/03 09:50:11;;;;;;;0.70;0.70;;;;;;;19.05;42.10;100976.91;5958982;29;20221;-75
2021/08/03 09:53:36;;;;;;;0.70;0.70;;;;;;;19.11;41.76;100986.88;5958876;29;20198;-76
2021/08/03 09:56:42;;;;;;;0.75;0.75;;;;;;;19.18;41.15;100981.94;5958859;30;20267;-76
2021/08/03 09:59:46;;;;;;;0.60;0.60;;;;;;;19.21;41.95;100986.91;5958880;30;20201;-75
2021/08/03 10:02:52;;;;;;;1.58;0.60;;;;;;;19.18;41.12;100987.47;5957974;30;20209;-75
2021/08/03 10:05:57;;;;;;;0.70;0.70;;;;;;;19.28;41.00;100984.75;5957690;30;20310;-75
2021/08/03 10:09:02;;;;;;;2.88;0.90;;;;;;;19.30;42.79;100979.75;5958691;30;20228;-75
2021/08/03 10:12:06;;;;;;;1.40;0.77;;;;;;;19.29;42.94;100989.16;5958380;30;20201;-75
2021/08/03 10:15:13;;;;;;;0.85;0.85;;;;;;;19.21;40.84;100997.97;5957548;30;20504;-76
2021/08/03 10:18:18;;;;;;;1.50;0.70;;;;;;;19.29;42.62;100989.16;5956630;30;20209;-76
2021/08/03 10:21:30;;;;;;;1.33;0.70;;;;;;;19.28;41.43;101002.16;5958187;29;20194;-75
2021/08/03 10:24:37;;;;;;;3.33;0.70;;;;;;;19.36;42.60;100996.09;5957186;30;20193;-76
2021/08/03 10:27:43;;;;;;;0.80;0.80;;;;;;;19.41;38.60;101003.66;5957028;29;20273;-76
2021/08/03 10:30:49;;;;;;;1.08;0.77;;;;;;;19.35;39.79;101010.22;5957791;30;20221;-77
2021/08/03 10:33:55;;;;;;;0.70;0.70;;;;;;;19.46;40.49;101000.91;5957292;30;20194;-76
2021/08/03 10:36:59;;;;;;;0.70;0.70;;;;;;;19.49;40.08;101010.59;5956308;30;20198;-77
2021/08/03 10:40:05;;;;;;;0.68;0.68;;;;;;;19.34;39.47;101014.06;5958216;30;20204;-76
2021/08/03 10:43:16;;;;;;;0.65;0.65;;;;;;;19.28;40.85;101012.41;5957482;30;20219;-76
2021/08/03 10:46:41;;;;;;;0.60;0.60;;;;;;;19.15;40.68;101015.66;5958119;30;20225;-76
2021/08/03 10:49:58;;;;;;;0.68;0.68;;;;;;;19.22;39.82;101013.47;5957998;30;20218;-76
2021/08/03 10:53:05;;;;;;;0.70;0.70;;;;;;;19.14;40.34;101019.53;5956785;30;20511;-76
2021/08/03 10:56:11;;;;;;;0.70;0.70;;;;;;;19.26;39.64;101023.72;5958018;29;20190;-74
2021/08/03 10:59:35;;;;;;;0.70;0.70;;;;;;;19.29;40.72;101016.81;5957770;30;20265;-75
2021/08/03 11:02:49;;;;;;;0.90;0.90;;;;;;;19.35;38.70;101015.75;5956767;30;20496;-75
2021/08/03 11:05:56;;;;;;;0.80;0.80;;;;;;;19.22;38.52;101013.47;5956740;30;20322;-75
2021/08/03 11:09:00;;;;;;;1.65;0.80;;;;;;;19.36;38.72;101011.88;5957684;29;20280;-75
2021/08/03 11:12:34;;;;;;;1.10;0.90;;;;;;;19.48;38.79;101015.28;5957404;30;20217;-75
2021/08/03 11:15:40;;;;;;;2.17;0.70;;;;;;;19.78;38.41;101017.28;5956443;30;20478;-75
2021/08/03 11:18:46;;;;;;;1.27;0.70;;;;;;;19.88;37.82;101018.16;5956338;30;20224;-75
2021/08/03 11:21:51;;;;;;;0.50;0.50;;;;;;;20.04;37.48;101032.00;5957439;30;20215;-75
2021/08/03 11:24:56;;;;;;;0.82;0.82;;;;;;;19.84;36.90;101019.81;5957218;30;20260;-75
2021/08/03 11:28:08;;;;;;;0.70;0.70;;;;;;;19.77;37.03;101022.00;5956510;30;20204;-75
2021/08/03 11:31:13;;;;;;;1.73;0.70;;;;;;;19.80;38.28;101032.53;5956470;30;20226;-75
2021/08/03 11:34:22;;;;;;;1.00;0.80;;;;;;;19.57;36.22;101035.78;5956515;30;20194;-75
2021/08/03 11:37:28;;;;;;;3.40;0.70;;;;;;;19.72;36.95;101033.06;5955755;29;20450;-75
2021/08/03 11:40:33;;;;;;;0.80;0.80;;;;;;;19.66;37.52;101045.22;5956033;30;20364;-75
2021/08/03 11:43:37;;;;;;;2.15;0.68;;;;;;;19.79;37.10;101044.72;5956550;30;20489;-75
2021/08/03 11:46:42;;;;;;;0.95;0.70;;;;;;;19.88;39.77;101029.22;5955725;30;20225;-75
2021/08/03 11:49:48;;;;;;;0.80;0.80;;;;;;;20.04;39.62;101035.63;5960374;29;20228;-75
2021/08/03 11:52:54;;;;;;;0.60;0.60;;;;;;;20.18;38.13;101035.94;5961272;30;20201;-75
2021/08/03 11:55:58;;;;;;;0.80;0.80;;;;;;;20.24;37.16;101035.66;5960502;30;20243;-75
2021/08/03 11:59:03;;;;;;;0.98;0.98;;;;;;;20.28;36.49;101035.97;5959967;30;20558;-76
2021/08/03 12:02:07;;;;;;;1.35;1.35;;;;;;;20.15;35.90;101042.84;5960461;29;20294;-76
2021/08/03 12:05:17;;;;;;;0.70;0.70;;;;;;;19.98;35.42;101059.69;5960281;30;20245;-76
2021/08/03 12:08:22;;;;;;;0.50;0.50;;;;;;;20.09;35.48;101049.47;5959864;30;20488;-76
2021/08/03 12:11:29;;;;;;;0.57;0.57;;;;;;;20.14;35.95;101051.41;5960015;30;20249;-75
2021/08/03 12:14:35;;;;;;;0.57;0.57;;;;;;;20.14;36.93;101056.97;5960343;30;20194;-76
2021/08/03 12:17:39;;;;;;;0.60;0.60;;;;;;;20.25;36.54;101053.13;5959929;29;20248;-76
2021/08/03 12:20:54;;;;;;;2.47;0.80;;;;;;;20.07;34.44;101042.56;5959514;30;20201;-75
2021/08/03 12:24:06;;;;;;;1.27;0.60;;;;;;;20.08;36.59;101047.81;5959626;30;20290;-76
2021/08/03 12:27:12;;;;;;;1.48;0.93;;;;;;;20.12;35.54;101056.41;5959175;29;20209;-75
2021/08/03 12:30:33;;;;;;;0.60;0.60;;;;;;;19.91;36.88;101059.13;5959345;30;20536;-76
2021/08/03 12:33:37;;;;;;;5.55;1.00;;;;;;;19.91;37.52;101063.84;5959245;30;20194;-75
2021/08/03 12:36:43;;;;;;;0.80;0.80;;;;;;;19.91;37.31;101061.06;5959382;30;20194;-76
2021/08/03 12:39:49;;;;;;;1.65;0.70;;;;;;;19.96;36.65;101064.69;5960744;29;20264;-76
2021/08/03 12:42:54;;;;;;;0.77;0.77;;;;;;;20.13;37.53;101050.63;5959253;30;20232;-76
2021/08/03 12:45:58;;;;;;;0.90;0.90;;;;;;;20.21;38.35;101052.00;5958682;29;20423;-76
2021/08/03 12:49:04;;;;;;;0.82;0.70;;;;;;;20.16;36.92;101057.53;5959325;30;20205;-76
2021/08/03 12:52:11;;;;;;;0.80;0.70;;;;;;;20.40;37.91;101050.38;5959045;30;20221;-75
2021/08/03 12:55:26;;;;;;;0.70;0.70;;;;;;;20.52;34.99;101062.00;5959908;30;20225;-76
2021/08/03 12:58:37;;;;;;;2.83;0.88;;;;;;;20.57;36.13;101064.78;5958905;29;20542;-75
2021/08/03 13:01:44;;;;;;;1.85;0.60;;;;;;;20.59;35.69;101066.16;5959292;29;20271;-76
2021/08/03 13:04:49;;;;;;;0.70;0.70;;;;;;;20.53;34.29;101060.91;5958634;30;20575;-75
2021/08/03 13:07:53;;;;;;;0.60;0.60;;;;;;;20.58;37.83;101060.91;5958668;30;20392;-76
2021/08/03 13:11:00;;;;;;;0.70;0.70;;;;;;;20.66;37.57;101071.44;5960030;30;20256;-76
2021/08/03 13:14:04;;;;;;;0.70;0.70;;;;;;;20.51;36.08;101085.31;5959964;29;20243;-76
2021/08/03 13:17:08;;;;;;;1.35;0.70;;;;;;;20.57;35.98;101078.63;5959699;30;20193;-77
2021/08/03 13:20:13;;;;;;;0.75;0.75;;;;;;;20.43;35.62;101072.84;5959486;30;20247;-75
2021/08/03 13:23:18;;;;;;;0.70;0.70;;;;;;;20.52;37.32;101073.09;5958475;30;20193;-75
2021/08/03 13:26:24;;;;;;;0.70;0.70;;;;;;;20.60;36.33;101072.53;5959696;30;20197;-75
2021/08/03 13:29:30;;;;;;;0.82;0.80;;;;;;;20.41;36.27;101074.22;5959679;30;20200;-74
2021/08/03 13:32:35;;;;;;;1.30;0.90;;;;;;;20.51;37.48;101085.31;5958711;30;20221;-77
2021/08/03 13:35:39;;;;;;;1.25;0.60;;;;;;;20.63;37.85;101079.47;5960407;30;20201;-76
2021/08/03 13:38:44;;;;;;;2.13;0.60;;;;;;;20.61;37.35;101085.31;5958716;29;20232;-76
2021/08/03 13:41:50;;;;;;;0.80;0.80;;;;;;;20.66;37.64;101085.31;5958095;30;20204;-75
2021/08/03 13:44:57;;;;;;;0.68;0.68;;;;;;;20.56;37.90;101082.53;5958960;30;20274;-76
2021/08/03 13:48:03;;;;;;;0.75;0.75;;;;;;;20.54;36.23;101085.56;5958876;30;20194;-75
2021/08/03 13:51:09;;;;;;;2.47;0.70;;;;;;;20.61;36.85;101088.06;5957836;30;20588;-76
2021/08/03 13:54:13;;;;;;;0.80;0.80;;;;;;;20.71;37.52;101093.63;5958065;30;20202;-76
2021/08/03 13:57:19;;;;;;;0.60;0.60;;;;;;;20.82;37.74;101075.88;5957680;30;20337;-76
2021/08/03 14:00:23;;;;;;;1.25;0.90;;;;;;;20.95;37.23;101078.06;5958636;30;20194;-76
2021/08/03 14:03:28;;;;;;;0.73;0.73;;;;;;;20.65;35.84;101097.50;5957950;30;20241;-76
2021/08/03 14:06:33;;;;;;;0.70;0.70;;;;;;;20.76;36.42;101088.06;5959134;30;20268;-75
2021/08/03 14:09:37;;;;;;;0.68;0.68;;;;;;;20.72;36.02;101086.97;5958260;30;20294;-76
2021/08/03 14:12:44;;;;;;;0.93;0.93;;;;;;;20.64;37.23;101083.91;5957936;29;20523;-76
2021/08/03 14:15:51;;;;;;;0.90;0.90;;;;;;;20.78;39.62;101085.00;5957998;30;20201;-76
2021/08/03 14:18:55;;;;;;;0.70;0.70;;;;;;;20.81;38.93;101090.84;5958480;30;20193;-76
2021/08/03 14:21:59;;;;;;;1.30;0.80;;;;;;;20.72;37.39;101089.75;5957180;30;20523;-76
2021/08/03 14:25:05;;;;;;;0.70;0.70;;;;;;;20.72;38.31;101084.19;5958369;30;20198;-76
2021/08/03 14:28:16;;;;;;;1.02;1.02;;;;;;;20.73;38.50;101096.09;5957010;30;20361;-76